Columbia/Owens Field, South Carolina
Current Conditions -  °F | °C
As of 2:53 PM on Sunday 23 Nov 2014 (Local Time) from KCUB Reporting Station
Light Rain Light Rain  
Wind Chill: 62°   Ceiling: 600
Heat Index: 62°   Visibility: 1.5mi
Dew Point: 60°   Wind: 5mph
Humidity: 93%   Direction: NA
Pressure: 29.9"   Gusts: NA
Location:  33.97°N, 81°W
Report Text: KCUB 231953Z AUTO VRB04KT 1 1/2SM -RA BR OVC006 17/16 A2990 RMK AO2 CIG 004V012 SLP124 P0008 T01670156
Loading
Personal Weather Stations






























Interactive Weather Map New forecast layout! Learn more

10-Day Weather Forecast

Advertisements
Track Severe Weather on mobile